Elko Regional Airport
KEKO : now visible

Airfield :











YOU CAN JOIN US ON...

 
LOGIN :

Register | Disclaimer

   EN    FR    IT 

 









Legend :    VFR   Marginal VFR   IFR   Intensive IFR   Very Intensive IFR
Visi :
Ceiling :
>= 8 km
>= 3000ft
5 to 8 km
1000 to 3000 ft
1500m to 5 km
500 to 1000 ft
800 to 1500m
200 to 500 ft
< 800m
< 200 ft
Symbols :   Thunderstorms  Fog  Heavy snow  Heavy precipitations  Wind > 20 kt






- Airport Elevation : 5140 ft
- IATA code : EKO


KEKO - Elko Regional

CURRENT METAR :
  • 042256Z AUTO 16004KT 10SM FEW110 35/M05 A3004 RMK AO2 SLP107 T03501050

EXPIRED METARs :
  • 042156Z AUTO 21008KT 10SM CLR 34/M04 A3006 RMK AO2 SLP117 T03441044
  • 042056Z AUTO VRB04KT 10SM CLR 34/M04 A3008 RMK AO2 SLP120 T03391044 58021

TAF KEKO
Valid from the 04 at 18:00 until the 05 at 18:00 UTC


041720Z 0418/0518 VRB05KT P6SM SKC
FM042100 25008KT P6SM FEW130
FM050200 32011KT P6SM FEW140
FM050700 VRB04KT P6SM FEW150
KZLC FIR / North America



MET'MAP, your aeronautical weather chart ! - Copyright ORBIFLY December 2007 - Disclaimer

ORBIFLY MET'MAP TEAM :

Programming & Development : Alexandra Zaïnal
Concept & original design : Baudouin d'Aumeries
Assistance for programming : Marc-Olivier Méhu
Technical & hardware support : Manuel Goepfert

Contact : metmap@orbifly.com




SOURCES & CREDITS :

   NOAA       Earth
Advisory